createdAt,value
2022-09-06T00:00:31.948Z,10.01
2022-09-06T00:03:01.288Z,9.98
2022-09-06T00:05:30.477Z,9.95
2022-09-06T00:08:00.525Z,9.91
2022-09-06T00:10:29.943Z,9.90
2022-09-06T00:13:03.530Z,9.90
2022-09-06T00:15:32.402Z,9.89
2022-09-06T00:18:01.794Z,9.86
2022-09-06T00:20:31.144Z,9.83
2022-09-06T00:23:01.152Z,9.80
2022-09-06T00:25:30.438Z,9.77
2022-09-06T00:28:01.693Z,9.74
2022-09-06T00:30:33.435Z,9.71
2022-09-06T00:33:02.239Z,9.67
2022-09-06T00:35:30.962Z,9.63
2022-09-06T00:37:59.983Z,9.59
2022-09-06T00:40:29.619Z,9.54
2022-09-06T00:42:58.491Z,9.51
2022-09-06T00:45:30.678Z,9.49
2022-09-06T00:48:02.099Z,9.44
2022-09-06T00:50:31.099Z,9.41
2022-09-06T00:53:00.069Z,9.42
2022-09-06T00:55:28.707Z,9.38
2022-09-06T00:57:57.453Z,9.36
2022-09-06T01:00:26.246Z,9.34
2022-09-06T01:02:55.237Z,9.35
2022-09-06T01:05:28.759Z,9.34
2022-09-06T01:08:06.779Z,9.33
2022-09-06T01:10:50.993Z,9.34
2022-09-06T01:13:27.734Z,9.31
2022-09-06T01:16:01.659Z,9.29
2022-09-06T01:18:41.084Z,9.28
2022-09-06T01:21:19.762Z,9.28
2022-09-06T01:24:26.593Z,9.27
2022-09-06T01:27:20.714Z,9.24
2022-09-06T01:29:53.340Z,9.21
2022-09-06T01:32:25.910Z,9.21
2022-09-06T01:34:57.839Z,9.21
2022-09-06T01:37:26.621Z,9.17
2022-09-06T01:39:55.350Z,9.12
2022-09-06T01:42:25.725Z,9.07
2022-09-06T01:45:03.647Z,9.07
2022-09-06T01:47:39.936Z,9.06
2022-09-06T01:50:36.178Z,9.06
2022-09-06T01:53:14.427Z,9.05
2022-09-06T01:55:47.019Z,9.03
2022-09-06T01:58:40.808Z,8.99
2022-09-06T02:01:17.583Z,8.98
2022-09-06T02:03:51.497Z,9.03
2022-09-06T02:06:26.305Z,9.02
2022-09-06T02:08:59.801Z,8.99
2022-09-06T02:11:29.456Z,8.93
2022-09-06T02:14:00.602Z,8.99
2022-09-06T02:16:31.892Z,8.95
2022-09-06T02:19:02.587Z,8.89
2022-09-06T02:21:33.885Z,8.85
2022-09-06T02:24:05.046Z,8.83
2022-09-06T02:26:36.048Z,8.83
2022-09-06T02:29:05.475Z,8.79
2022-09-06T02:31:37.551Z,8.76
2022-09-06T02:34:06.535Z,8.76
2022-09-06T02:36:37.174Z,8.72
2022-09-06T02:39:06.977Z,8.74
2022-09-06T02:41:35.970Z,8.74
2022-09-06T02:44:04.856Z,8.76
2022-09-06T02:46:34.727Z,8.76
2022-09-06T02:49:03.882Z,8.76
2022-09-06T02:51:33.086Z,8.80
2022-09-06T02:54:01.827Z,8.87
2022-09-06T02:56:30.832Z,8.91
2022-09-06T02:58:59.763Z,8.95
2022-09-06T03:01:28.284Z,8.97
2022-09-06T03:03:58.644Z,8.99
2022-09-06T03:06:27.529Z,8.99
2022-09-06T03:08:56.452Z,8.99
2022-09-06T03:11:25.097Z,8.99
2022-09-06T03:13:53.489Z,8.98
2022-09-06T03:16:22.696Z,9.00
2022-09-06T03:18:51.507Z,9.04
2022-09-06T03:21:21.648Z,9.05
2022-09-06T03:23:51.090Z,9.07
2022-09-06T03:26:19.987Z,9.06
2022-09-06T03:28:48.435Z,9.03
2022-09-06T03:31:17.197Z,9.00
2022-09-06T03:33:45.995Z,8.93
2022-09-06T03:36:15.828Z,8.87
2022-09-06T03:38:46.283Z,8.83
2022-09-06T03:41:15.079Z,8.81
2022-09-06T03:43:43.523Z,8.81
2022-09-06T03:46:13.701Z,8.77
2022-09-06T03:48:42.683Z,8.73
2022-09-06T03:51:11.476Z,8.74
2022-09-06T03:53:40.261Z,8.74
2022-09-06T03:56:10.420Z,8.75
2022-09-06T03:58:38.894Z,8.78
2022-09-06T04:01:09.832Z,8.85
2022-09-06T04:03:39.653Z,8.90
2022-09-06T04:06:10.144Z,8.98
2022-09-06T04:08:39.436Z,9.05
2022-09-06T04:11:09.662Z,9.13
2022-09-06T04:13:38.663Z,9.18
2022-09-06T04:16:07.993Z,9.22
2022-09-06T04:18:36.768Z,9.29
2022-09-06T04:21:05.740Z,9.33
2022-09-06T04:23:39.682Z,9.40
2022-09-06T04:26:10.301Z,9.43
2022-09-06T04:28:38.829Z,9.48
2022-09-06T04:31:07.589Z,9.56
2022-09-06T04:33:38.459Z,9.60
2022-09-06T04:36:09.365Z,9.64
2022-09-06T04:38:40.325Z,9.67
2022-09-06T04:41:11.530Z,9.73
2022-09-06T04:43:41.542Z,9.76
2022-09-06T04:46:14.130Z,9.76
2022-09-06T04:48:42.949Z,9.76
2022-09-06T04:51:13.990Z,9.81
2022-09-06T04:53:42.840Z,9.88
2022-09-06T04:56:16.087Z,9.97
2022-09-06T04:58:44.906Z,10.05
2022-09-06T05:01:14.238Z,10.10
2022-09-06T05:03:45.516Z,10.13
2022-09-06T05:06:19.529Z,10.16
2022-09-06T05:08:48.980Z,10.13
2022-09-06T05:11:19.841Z,10.07
2022-09-06T05:13:50.414Z,10.04
2022-09-06T05:16:19.452Z,10.08
2022-09-06T05:18:48.246Z,10.27
2022-09-06T05:21:17.150Z,10.42
2022-09-06T05:23:45.918Z,10.51
2022-09-06T05:26:14.627Z,10.64
2022-09-06T05:28:44.409Z,10.79
2022-09-06T05:31:14.401Z,10.87
2022-09-06T05:33:43.151Z,11.00
2022-09-06T05:36:12.187Z,11.18
2022-09-06T05:38:40.995Z,11.32
2022-09-06T05:41:11.113Z,11.43
2022-09-06T05:43:39.541Z,11.54
2022-09-06T05:46:09.926Z,11.65
2022-09-06T05:48:38.600Z,11.79
2022-09-06T05:51:09.223Z,11.96
2022-09-06T05:53:37.920Z,11.99
2022-09-06T05:56:07.689Z,12.16
2022-09-06T05:58:36.770Z,12.26
2022-09-06T06:01:07.375Z,12.39
2022-09-06T06:03:37.563Z,12.51
2022-09-06T06:06:06.722Z,12.65
2022-09-06T06:08:36.353Z,12.84
2022-09-06T06:11:05.423Z,12.83
2022-09-06T06:13:39.505Z,13.01
2022-09-06T06:16:09.763Z,12.87
2022-09-06T06:18:40.215Z,13.05
2022-09-06T06:21:10.589Z,13.25
2022-09-06T06:23:40.019Z,13.35
2022-09-06T06:26:09.276Z,13.37
2022-09-06T06:28:38.084Z,13.46
2022-09-06T06:31:07.674Z,13.61
2022-09-06T06:33:36.468Z,13.66
2022-09-06T06:36:08.718Z,13.58
2022-09-06T06:38:38.967Z,13.79
2022-09-06T06:41:09.619Z,13.92
2022-09-06T06:43:38.353Z,13.72
2022-09-06T06:46:08.524Z,13.78
2022-09-06T06:48:37.605Z,13.92
2022-09-06T06:51:07.743Z,13.68
2022-09-06T06:53:36.817Z,14.01
2022-09-06T06:56:15.771Z,14.21
2022-09-06T06:58:44.677Z,14.46
2022-09-06T07:01:14.025Z,14.54
2022-09-06T07:03:42.926Z,14.83
2022-09-06T07:06:13.377Z,15.25
2022-09-06T07:08:42.889Z,16.54
2022-09-06T07:11:13.429Z,18.52
2022-09-06T07:13:42.006Z,19.46
2022-09-06T07:16:13.606Z,20.47
2022-09-06T07:18:43.233Z,22.34
2022-09-06T07:26:39.482Z,23.93
2022-09-06T07:29:09.265Z,24.11
2022-09-06T07:34:28.322Z,24.76
2022-09-06T07:36:58.410Z,25.74
2022-09-06T07:39:27.235Z,27.14
2022-09-06T07:41:56.043Z,28.19
2022-09-06T07:44:25.296Z,29.36
2022-09-06T07:46:54.234Z,29.33
2022-09-06T07:49:23.076Z,29.30
2022-09-06T07:51:51.752Z,29.56
2022-09-06T07:54:31.236Z,29.48
2022-09-06T07:57:00.135Z,29.79
2022-09-06T07:59:28.882Z,30.30
2022-09-06T08:01:57.578Z,27.70
2022-09-06T08:04:26.160Z,28.81
2022-09-06T08:09:47.823Z,30.89
2022-09-06T08:12:16.615Z,31.71
2022-09-06T08:14:45.378Z,31.41
2022-09-06T08:17:14.337Z,32.01
2022-09-06T08:19:42.776Z,32.78
2022-09-06T08:22:11.534Z,33.16
2022-09-06T08:24:41.617Z,33.04
2022-09-06T08:27:12.071Z,32.86
2022-09-06T08:29:41.293Z,31.56
2022-09-06T08:32:11.236Z,29.03
2022-09-06T08:34:39.839Z,27.47
2022-09-06T08:37:08.702Z,25.49
2022-09-06T08:39:37.675Z,22.97
2022-09-06T08:42:07.785Z,21.90
2022-09-06T08:44:55.994Z,23.10
2022-09-06T08:47:25.995Z,25.10
2022-09-06T08:49:56.841Z,26.87
2022-09-06T08:53:00.149Z,26.69
2022-09-06T08:55:38.907Z,29.97
2022-09-06T08:58:21.472Z,31.98
2022-09-06T09:00:58.598Z,31.90
2022-09-06T09:03:32.970Z,32.94
2022-09-06T09:06:05.489Z,29.97
2022-09-06T09:08:41.122Z,30.95
2022-09-06T09:11:11.858Z,28.79
2022-09-06T09:13:53.812Z,27.98
2022-09-06T09:16:25.742Z,28.00
2022-09-06T09:18:56.936Z,30.32
2022-09-06T09:21:30.374Z,33.27
2022-09-06T09:24:03.231Z,35.43
2022-09-06T09:26:36.962Z,37.41
2022-09-06T09:29:07.679Z,32.50
2022-09-06T09:31:40.532Z,27.84
2022-09-06T09:34:13.090Z,30.00
2022-09-06T09:39:36.360Z,33.13
2022-09-06T09:42:05.317Z,34.18
2022-09-06T09:44:34.704Z,34.76
2022-09-06T09:47:16.092Z,33.48
2022-09-06T09:49:44.793Z,36.01
2022-09-06T09:52:15.064Z,28.62
2022-09-06T09:54:45.997Z,29.43
2022-09-06T09:57:20.150Z,34.31
2022-09-06T09:59:52.064Z,34.33
2022-09-06T10:02:26.197Z,34.82
2022-09-06T10:05:03.386Z,37.65
2022-09-06T10:07:35.929Z,33.45
2022-09-06T10:10:06.108Z,32.72
2022-09-06T10:12:36.458Z,33.85
2022-09-06T10:15:07.365Z,36.82
2022-09-06T10:17:39.779Z,39.28
2022-09-06T10:20:11.164Z,40.54
2022-09-06T10:22:48.626Z,41.80
2022-09-06T10:25:33.568Z,43.45
2022-09-06T10:28:30.708Z,40.06
2022-09-06T10:31:33.536Z,39.88
2022-09-06T10:34:18.084Z,40.36
2022-09-06T10:36:51.579Z,40.92
2022-09-06T10:39:31.778Z,41.02
2022-09-06T10:42:10.436Z,37.59
2022-09-06T10:44:51.294Z,34.39
2022-09-06T10:47:20.361Z,36.67
2022-09-06T10:49:54.415Z,38.76
2022-09-06T10:52:27.768Z,38.48
2022-09-06T10:54:57.446Z,33.05
2022-09-06T11:00:44.868Z,32.53
2022-09-06T11:06:20.040Z,34.20
2022-09-06T11:08:57.750Z,37.50
2022-09-06T11:11:35.703Z,39.56
2022-09-06T11:14:07.480Z,36.03
2022-09-06T11:16:42.154Z,38.01
2022-09-06T11:19:14.377Z,37.81
2022-09-06T11:21:56.504Z,41.29
2022-09-06T11:24:36.056Z,42.23
2022-09-06T11:27:07.261Z,42.56
2022-09-06T11:29:37.070Z,43.49
2022-09-06T11:32:28.498Z,41.89
2022-09-06T11:35:01.964Z,41.88
2022-09-06T11:37:35.104Z,37.28
2022-09-06T11:43:12.416Z,37.88
2022-09-06T11:45:44.080Z,37.60
2022-09-06T11:48:35.197Z,38.51
2022-09-06T11:51:07.905Z,41.06
2022-09-06T11:54:08.207Z,41.92
2022-09-06T11:56:41.256Z,41.99
2022-09-06T11:59:14.727Z,43.66
2022-09-06T12:01:43.214Z,44.49
2022-09-06T12:04:14.339Z,40.27
2022-09-06T12:06:44.328Z,41.11
2022-09-06T12:09:34.580Z,41.63
2022-09-06T12:12:05.148Z,42.11
2022-09-06T12:14:40.048Z,43.31
2022-09-06T12:17:23.656Z,44.59
2022-09-06T12:19:53.483Z,45.68
2022-09-06T12:22:54.232Z,43.19
2022-09-06T12:25:53.200Z,45.42
2022-09-06T12:28:24.094Z,42.27
2022-09-06T12:30:53.177Z,37.86
2022-09-06T12:33:26.970Z,38.72
2022-09-06T12:36:14.471Z,39.39
2022-09-06T12:38:55.445Z,41.67
2022-09-06T12:41:26.680Z,43.18
2022-09-06T12:43:58.373Z,42.97
2022-09-06T12:46:27.868Z,43.57
2022-09-06T12:49:08.108Z,44.88
2022-09-06T12:51:37.633Z,44.16
2022-09-06T12:54:07.792Z,44.23
2022-09-06T12:56:38.027Z,43.89
2022-09-06T12:59:19.682Z,42.65
2022-09-06T13:01:53.247Z,36.32
2022-09-06T13:04:28.369Z,36.27
2022-09-06T13:06:58.271Z,34.79
2022-09-06T13:09:28.745Z,34.13
2022-09-06T13:12:05.369Z,28.96
2022-09-06T13:14:34.845Z,30.09
2022-09-06T13:17:03.623Z,27.52
2022-09-06T13:19:34.984Z,28.19
2022-09-06T13:22:05.590Z,29.07
2022-09-06T13:24:47.283Z,30.14
2022-09-06T13:27:28.918Z,26.51
2022-09-06T13:29:59.028Z,27.60
2022-09-06T13:32:28.601Z,29.29
2022-09-06T13:34:59.194Z,30.73
2022-09-06T13:37:29.254Z,31.72
2022-09-06T13:39:58.886Z,33.33
2022-09-06T13:42:33.292Z,33.02
2022-09-06T13:45:30.129Z,32.85
2022-09-06T13:48:13.072Z,30.86
2022-09-06T13:50:47.885Z,29.94
2022-09-06T13:53:21.049Z,26.38
2022-09-06T13:55:49.641Z,24.12
2022-09-06T13:58:20.017Z,21.32
2022-09-06T14:00:49.040Z,21.77
2022-09-06T14:03:23.055Z,22.55
2022-09-06T14:05:52.027Z,22.94
2022-09-06T14:08:21.382Z,25.15
2022-09-06T14:10:50.241Z,27.64
2022-09-06T14:13:21.667Z,29.48
2022-09-06T14:15:51.539Z,30.81
2022-09-06T14:18:20.471Z,27.52
2022-09-06T14:20:54.877Z,27.39
2022-09-06T14:23:24.136Z,26.26
2022-09-06T14:25:57.019Z,27.06
2022-09-06T14:28:28.140Z,27.16
2022-09-06T14:30:56.961Z,29.33
2022-09-06T14:33:26.115Z,29.31
2022-09-06T14:35:55.204Z,30.20
2022-09-06T14:38:24.133Z,27.01
2022-09-06T14:40:52.939Z,27.65
2022-09-06T14:43:21.986Z,24.98
2022-09-06T14:45:52.458Z,23.37
2022-09-06T14:48:21.205Z,24.41
2022-09-06T14:50:49.954Z,24.01
2022-09-06T14:53:38.876Z,23.71
2022-09-06T14:56:08.263Z,23.90
2022-09-06T14:58:37.645Z,24.09
2022-09-06T15:01:14.957Z,25.83
2022-09-06T15:03:46.867Z,27.77
2022-09-06T15:06:16.533Z,29.75
2022-09-06T15:08:45.625Z,31.10
2022-09-06T15:11:14.422Z,32.61
2022-09-06T15:13:43.414Z,31.18
2022-09-06T15:16:13.664Z,30.80
2022-09-06T15:18:42.493Z,30.59
2022-09-06T15:21:13.203Z,30.20
2022-09-06T15:23:43.166Z,30.73
2022-09-06T15:26:13.746Z,28.14
2022-09-06T15:28:43.751Z,27.05
2022-09-06T15:31:15.343Z,25.96
2022-09-06T15:33:44.189Z,24.41
2022-09-06T15:36:14.016Z,23.29
2022-09-06T15:38:44.327Z,23.40
2022-09-06T15:41:15.010Z,22.39
2022-09-06T15:43:47.650Z,22.03
2022-09-06T15:46:21.190Z,21.43
2022-09-06T15:48:53.638Z,21.65
2022-09-06T15:51:22.465Z,23.38
2022-09-06T15:53:51.267Z,26.34
2022-09-06T15:56:20.321Z,27.93
2022-09-06T15:58:48.867Z,27.88
2022-09-06T16:01:20.611Z,28.78
2022-09-06T16:03:50.862Z,29.64
2022-09-06T16:08:59.839Z,28.46
2022-09-06T16:11:30.250Z,28.42
2022-09-06T16:13:59.080Z,28.05
2022-09-06T16:16:29.463Z,27.89
2022-09-06T16:18:58.701Z,28.13
2022-09-06T16:21:30.476Z,25.04
2022-09-06T16:24:00.790Z,23.19
2022-09-06T16:26:32.246Z,20.61
2022-09-06T16:29:02.209Z,19.08
2022-09-06T16:31:39.185Z,18.79
2022-09-06T16:34:09.200Z,18.34
2022-09-06T16:36:38.449Z,18.10
2022-09-06T16:39:08.096Z,18.04
2022-09-06T16:41:40.723Z,17.71
2022-09-06T16:44:10.370Z,17.28
2022-09-06T16:46:41.832Z,17.22
2022-09-06T16:49:10.855Z,17.03
2022-09-06T16:51:39.797Z,16.74
2022-09-06T16:54:08.509Z,16.64
2022-09-06T16:56:37.150Z,16.53
2022-09-06T16:59:07.282Z,16.44
2022-09-06T17:01:36.839Z,16.35
2022-09-06T17:04:07.580Z,16.30
2022-09-06T17:06:42.282Z,16.19
2022-09-06T17:09:11.499Z,16.08
2022-09-06T17:11:41.549Z,15.95
2022-09-06T17:14:10.518Z,15.80
2022-09-06T17:16:56.427Z,15.73
2022-09-06T17:19:26.965Z,15.64
2022-09-06T17:21:55.844Z,15.53
2022-09-06T17:24:24.892Z,15.47
2022-09-06T17:26:53.641Z,15.36
2022-09-06T17:29:22.913Z,15.27
2022-09-06T17:31:51.537Z,15.22
2022-09-06T17:34:20.486Z,15.13
2022-09-06T17:36:50.726Z,15.06
2022-09-06T17:39:21.746Z,14.97
2022-09-06T17:41:52.327Z,14.87
2022-09-06T17:44:22.799Z,14.85
2022-09-06T17:47:11.427Z,14.78
2022-09-06T17:49:40.249Z,14.72
2022-09-06T17:52:10.477Z,14.65
2022-09-06T17:54:39.190Z,14.62
2022-09-06T17:57:07.863Z,14.60
2022-09-06T17:59:36.595Z,14.53
2022-09-06T18:02:05.548Z,14.46
2022-09-06T18:04:34.337Z,14.40
2022-09-06T18:07:03.279Z,14.36
2022-09-06T18:09:33.378Z,14.29
2022-09-06T18:12:02.068Z,14.16
2022-09-06T18:14:31.089Z,14.08
2022-09-06T18:16:59.959Z,14.00
2022-09-06T18:19:28.683Z,13.95
2022-09-06T18:21:57.865Z,13.90
2022-09-06T18:24:27.248Z,13.87
2022-09-06T18:26:57.394Z,13.78
2022-09-06T18:29:26.153Z,13.72
2022-09-06T18:31:55.082Z,13.67
2022-09-06T18:34:23.958Z,13.58
2022-09-06T18:36:53.003Z,13.46
2022-09-06T18:39:21.786Z,13.39
2022-09-06T18:42:07.089Z,13.31
2022-09-06T18:44:37.555Z,13.28
2022-09-06T18:47:07.313Z,13.22
2022-09-06T18:49:38.524Z,13.22
2022-09-06T18:52:09.291Z,13.17
2022-09-06T18:54:38.091Z,13.13
2022-09-06T18:57:06.869Z,13.10
2022-09-06T18:59:37.051Z,13.07
2022-09-06T19:02:05.760Z,13.02
2022-09-06T19:04:34.173Z,12.96
2022-09-06T19:07:04.012Z,12.89
2022-09-06T19:09:32.717Z,12.88
2022-09-06T19:12:01.437Z,12.78
2022-09-06T19:14:30.177Z,12.73
2022-09-06T19:17:00.341Z,12.66
2022-09-06T19:19:29.865Z,12.62
2022-09-06T19:21:58.669Z,12.71
2022-09-06T19:24:27.539Z,12.75
2022-09-06T19:26:56.423Z,12.74
2022-09-06T19:29:25.106Z,12.69
2022-09-06T19:31:54.589Z,12.73
2022-09-06T19:34:24.960Z,12.64
2022-09-06T19:36:55.465Z,12.55
2022-09-06T19:39:36.193Z,12.54
2022-09-06T19:42:06.468Z,12.45
2022-09-06T19:44:35.201Z,12.42
2022-09-06T19:47:04.383Z,12.45
2022-09-06T19:49:34.198Z,12.43
2022-09-06T19:52:09.573Z,12.35
2022-09-06T19:54:38.466Z,12.34
2022-09-06T19:57:07.388Z,12.23
2022-09-06T19:59:37.042Z,12.21
2022-09-06T20:02:05.807Z,12.14
2022-09-06T20:04:35.644Z,12.11
2022-09-06T20:07:04.392Z,12.09
2022-09-06T20:09:33.388Z,12.05
2022-09-06T20:12:02.371Z,11.95
2022-09-06T20:14:31.380Z,11.89
2022-09-06T20:17:22.743Z,11.86
2022-09-06T20:19:50.483Z,11.80
2022-09-06T20:22:19.205Z,11.71
2022-09-06T20:24:48.023Z,11.57
2022-09-06T20:27:16.748Z,11.52
2022-09-06T20:29:45.497Z,11.44
2022-09-06T20:32:14.687Z,11.35
2022-09-06T20:34:43.210Z,11.34
2022-09-06T20:37:13.245Z,11.23
2022-09-06T20:39:41.974Z,11.20
2022-09-06T20:42:10.741Z,11.13
2022-09-06T20:44:39.492Z,11.07
2022-09-06T20:47:08.313Z,11.05
2022-09-06T20:49:36.744Z,11.03
2022-09-06T20:52:05.381Z,11.01
2022-09-06T20:54:35.834Z,10.94
2022-09-06T20:57:04.374Z,10.84
2022-09-06T20:59:33.080Z,10.75
2022-09-06T21:02:02.518Z,10.72
2022-09-06T21:04:32.114Z,10.71
2022-09-06T21:07:01.213Z,10.59
2022-09-06T21:09:29.938Z,10.55
2022-09-06T21:12:00.122Z,10.59
2022-09-06T21:14:28.966Z,10.64
2022-09-06T21:16:57.737Z,10.61
2022-09-06T21:19:26.585Z,10.53
2022-09-06T21:21:55.272Z,10.50
2022-09-06T21:24:24.104Z,10.46
2022-09-06T21:26:53.276Z,10.40
2022-09-06T21:29:23.536Z,10.32
2022-09-06T21:31:51.981Z,10.23
2022-09-06T21:34:20.730Z,10.10
2022-09-06T21:36:49.543Z,10.04
2022-09-06T21:39:18.533Z,9.93
2022-09-06T21:41:48.040Z,9.85
2022-09-06T21:44:16.726Z,9.77
2022-09-06T21:46:46.773Z,9.75
2022-09-06T21:49:15.542Z,9.78
2022-09-06T21:51:44.407Z,9.71
2022-09-06T21:54:13.016Z,9.65
2022-09-06T21:56:41.899Z,9.71
2022-09-06T21:59:11.016Z,9.76
2022-09-06T22:01:40.447Z,9.76
2022-09-06T22:04:10.840Z,9.76
2022-09-06T22:06:40.669Z,9.73
2022-09-06T22:09:14.598Z,9.72
2022-09-06T22:11:44.771Z,9.66
2022-09-06T22:14:15.657Z,9.52
2022-09-06T22:16:44.110Z,9.45
2022-09-06T22:19:14.474Z,9.39
2022-09-06T22:21:43.374Z,9.35
2022-09-06T22:24:14.370Z,9.33
2022-09-06T22:26:43.518Z,9.20
2022-09-06T22:29:13.608Z,9.12
2022-09-06T22:31:42.620Z,9.03
2022-09-06T22:34:11.805Z,9.03
2022-09-06T22:36:42.282Z,9.01
2022-09-06T22:39:10.851Z,8.94
2022-09-06T22:41:39.915Z,8.96
2022-09-06T22:44:08.807Z,8.89
2022-09-06T22:46:38.407Z,8.83
2022-09-06T22:49:07.324Z,8.74
2022-09-06T22:51:36.228Z,8.68
2022-09-06T22:54:06.745Z,8.69
2022-09-06T22:56:35.896Z,8.63
2022-09-06T22:59:04.923Z,8.66
2022-09-06T23:01:38.750Z,8.69
2022-09-06T23:04:08.162Z,8.63
2022-09-06T23:06:37.638Z,8.55
2022-09-06T23:09:08.033Z,8.53
2022-09-06T23:11:36.806Z,8.50
2022-09-06T23:14:06.211Z,8.51
2022-09-06T23:16:34.837Z,8.51
2022-09-06T23:19:03.734Z,8.48
2022-09-06T23:21:33.034Z,8.44
2022-09-06T23:24:01.923Z,8.40
2022-09-06T23:26:33.479Z,8.30
2022-09-06T23:29:02.483Z,8.26
2022-09-06T23:31:32.729Z,8.26
2022-09-06T23:34:02.639Z,8.25
2022-09-06T23:36:32.030Z,8.17
2022-09-06T23:39:02.227Z,8.07
2022-09-06T23:41:32.634Z,7.97
2022-09-06T23:44:02.160Z,7.91
2022-09-06T23:46:31.173Z,7.83
2022-09-06T23:49:00.098Z,7.75
2022-09-06T23:51:29.292Z,7.69
2022-09-06T23:53:58.433Z,7.65
2022-09-06T23:56:27.303Z,7.63
2022-09-06T23:58:57.265Z,7.58
